createdAt,value
2018-04-17T00:00:21.405Z,8.70
2018-04-17T00:02:47.944Z,10.97
2018-04-17T00:05:14.486Z,11.60
2018-04-17T00:07:40.952Z,11.73
2018-04-17T00:10:07.549Z,11.40
2018-04-17T00:12:34.024Z,17.80
2018-04-17T00:15:00.494Z,14.37
2018-04-17T00:17:27.712Z,18.53
2018-04-17T00:19:54.179Z,18.10
2018-04-17T00:22:21.406Z,19.80
2018-04-17T00:24:48.632Z,16.70
2018-04-17T00:27:15.124Z,15.00
2018-04-17T00:29:42.346Z,19.33
2018-04-17T00:32:08.847Z,14.90
2018-04-17T00:34:35.355Z,15.47
2018-04-17T00:37:02.571Z,19.87
2018-04-17T00:39:29.055Z,15.20
2018-04-17T00:41:56.297Z,11.97
2018-04-17T00:44:22.743Z,12.67
2018-04-17T00:46:49.987Z,16.67
2018-04-17T00:49:16.479Z,16.87
2018-04-17T00:51:42.996Z,10.50
2018-04-17T00:54:09.510Z,13.20
2018-04-17T00:56:36.038Z,14.17
2018-04-17T00:59:02.524Z,9.77
2018-04-17T01:01:29.027Z,15.63
2018-04-17T01:03:55.524Z,14.90
2018-04-17T01:06:22.045Z,13.20
2018-04-17T01:08:48.496Z,11.43
2018-04-17T01:11:15.041Z,16.60
2018-04-17T01:13:41.533Z,11.20
2018-04-17T01:16:08.783Z,13.87
2018-04-17T01:18:36.004Z,9.90
2018-04-17T01:21:02.453Z,15.40
2018-04-17T01:23:28.913Z,11.87
2018-04-17T01:25:56.179Z,12.43
2018-04-17T01:28:23.389Z,8.87
2018-04-17T01:30:49.891Z,13.27
2018-04-17T01:33:16.390Z,9.93
2018-04-17T01:35:42.848Z,10.10
2018-04-17T01:38:10.084Z,13.83
2018-04-17T01:40:37.357Z,10.37
2018-04-17T01:43:04.585Z,12.60
2018-04-17T01:45:31.109Z,9.90
2018-04-17T01:47:57.641Z,9.90
2018-04-17T01:50:24.124Z,11.60
2018-04-17T01:52:51.347Z,16.33
2018-04-17T01:55:17.905Z,10.70
2018-04-17T01:57:44.407Z,16.70
2018-04-17T02:00:10.893Z,11.00
2018-04-17T02:02:37.426Z,12.77
2018-04-17T02:05:03.957Z,13.03
2018-04-17T02:07:30.424Z,10.17
2018-04-17T02:09:57.730Z,10.00
2018-04-17T02:12:24.208Z,7.63
2018-04-17T02:14:51.458Z,10.23
2018-04-17T02:17:17.969Z,7.90
2018-04-17T02:19:44.476Z,9.77
2018-04-17T02:22:10.983Z,8.70
2018-04-17T02:24:38.254Z,9.60
2018-04-17T02:27:04.739Z,9.23
2018-04-17T02:29:31.282Z,11.20
2018-04-17T02:31:57.781Z,9.07
2018-04-17T02:34:24.297Z,14.40
2018-04-17T02:36:51.547Z,11.07
2018-04-17T02:39:18.833Z,10.33
2018-04-17T02:41:45.326Z,11.30
2018-04-17T02:44:11.837Z,11.97
2018-04-17T02:46:38.374Z,9.70
2018-04-17T02:49:04.853Z,10.93
2018-04-17T02:51:31.333Z,13.37
2018-04-17T02:53:57.847Z,11.13
2018-04-17T02:56:25.087Z,9.50
2018-04-17T02:58:51.590Z,9.47
2018-04-17T03:01:18.856Z,9.13
2018-04-17T03:03:45.341Z,10.43
2018-04-17T03:06:12.607Z,9.13
2018-04-17T03:08:39.868Z,12.20
2018-04-17T03:11:06.373Z,11.20
2018-04-17T03:13:32.876Z,10.13
2018-04-17T03:15:59.381Z,10.43
2018-04-17T03:18:25.886Z,11.07
2018-04-17T03:20:52.360Z,13.67
2018-04-17T03:23:18.892Z,10.67
2018-04-17T03:25:45.369Z,10.90
2018-04-17T03:28:12.589Z,10.83
2018-04-17T03:30:39.099Z,11.70
2018-04-17T03:33:06.347Z,11.87
2018-04-17T03:35:32.849Z,16.10
2018-04-17T03:37:59.383Z,11.03
2018-04-17T03:40:25.862Z,9.97
2018-04-17T03:42:52.364Z,13.77
2018-04-17T03:45:18.851Z,13.63
2018-04-17T03:47:46.102Z,11.40
2018-04-17T03:50:13.337Z,10.40
2018-04-17T03:52:39.836Z,15.70
2018-04-17T03:55:06.326Z,14.77
2018-04-17T03:57:32.835Z,13.60
2018-04-17T03:59:59.336Z,10.40
2018-04-17T04:02:25.845Z,14.40
2018-04-17T04:04:52.336Z,14.73
2018-04-17T04:07:18.900Z,11.33
2018-04-17T04:09:46.161Z,10.93
2018-04-17T04:12:12.680Z,14.33
2018-04-17T04:14:39.218Z,15.60
2018-04-17T04:17:17.953Z,13.10
2018-04-17T04:19:56.626Z,11.03
2018-04-17T04:22:36.161Z,15.67
2018-04-17T04:25:16.613Z,12.37
2018-04-17T04:27:43.141Z,15.13
2018-04-17T04:30:09.639Z,12.53
2018-04-17T04:32:37.050Z,14.20
2018-04-17T04:35:03.564Z,14.50
2018-04-17T04:37:30.068Z,13.97
2018-04-17T04:39:56.612Z,19.40
2018-04-17T04:42:23.116Z,16.33
2018-04-17T04:44:49.626Z,16.00
2018-04-17T04:47:16.151Z,15.37
2018-04-17T04:49:42.630Z,15.80
2018-04-17T04:52:09.131Z,12.80
2018-04-17T04:54:35.631Z,13.70
2018-04-17T04:57:02.868Z,15.00
2018-04-17T04:59:29.368Z,17.17
2018-04-17T05:01:56.831Z,16.50
2018-04-17T05:04:23.301Z,13.63
2018-04-17T05:06:49.777Z,14.23
2018-04-17T05:09:16.271Z,16.03
2018-04-17T05:11:42.761Z,15.30
2018-04-17T05:14:09.302Z,16.00
2018-04-17T05:16:35.870Z,19.40
2018-04-17T05:19:02.350Z,15.67
2018-04-17T05:21:29.575Z,18.77
2018-04-17T05:23:56.113Z,21.70
2018-04-17T05:26:22.612Z,17.13
2018-04-17T05:28:49.091Z,18.73
2018-04-17T05:31:16.537Z,20.30
2018-04-17T05:33:43.046Z,16.70
2018-04-17T05:36:09.553Z,17.63
2018-04-17T05:38:36.823Z,15.70
2018-04-17T05:41:04.191Z,14.27
2018-04-17T05:43:30.717Z,15.10
2018-04-17T05:45:58.029Z,14.77
2018-04-17T05:48:24.567Z,14.73
2018-04-17T05:50:51.096Z,19.17
2018-04-17T05:53:17.618Z,16.50
2018-04-17T05:55:44.148Z,17.00
2018-04-17T05:58:10.691Z,16.20
2018-04-17T06:00:37.240Z,15.17
2018-04-17T06:03:03.743Z,15.47
2018-04-17T06:05:31.085Z,17.10
2018-04-17T06:07:57.637Z,17.70
2018-04-17T06:10:24.217Z,18.77
2018-04-17T06:12:50.795Z,16.07
2018-04-17T06:15:17.356Z,15.63
2018-04-17T06:17:43.919Z,17.60
2018-04-17T06:20:11.238Z,17.10
2018-04-17T06:22:37.740Z,19.07
2018-04-17T06:25:04.248Z,22.37
2018-04-17T06:27:31.565Z,16.20
2018-04-17T06:29:58.087Z,17.13
2018-04-17T06:32:24.613Z,17.00
2018-04-17T06:34:51.165Z,15.33
2018-04-17T06:37:17.685Z,13.53
2018-04-17T06:39:44.217Z,15.20
2018-04-17T06:42:10.698Z,15.97
2018-04-17T06:44:37.228Z,15.30
2018-04-17T06:47:03.760Z,18.83
2018-04-17T06:49:30.252Z,13.77
2018-04-17T06:51:57.566Z,16.30
2018-04-17T06:54:24.059Z,13.03
2018-04-17T06:56:51.366Z,16.70
2018-04-17T06:59:17.927Z,16.90
2018-04-17T07:01:44.446Z,16.53
2018-04-17T07:04:10.949Z,15.70
2018-04-17T07:06:37.464Z,13.20
2018-04-17T07:09:05.593Z,14.07
2018-04-17T07:11:32.087Z,13.40
2018-04-17T07:13:59.354Z,13.17
2018-04-17T07:16:25.857Z,13.10
2018-04-17T07:18:52.371Z,14.17
2018-04-17T07:21:18.915Z,13.60
2018-04-17T07:23:45.473Z,11.97
2018-04-17T07:26:11.958Z,12.57
2018-04-17T07:28:38.445Z,14.27
2018-04-17T07:31:04.963Z,16.73
2018-04-17T07:33:31.429Z,12.27
2018-04-17T07:35:58.040Z,11.77
2018-04-17T07:38:24.571Z,11.53
2018-04-17T07:40:51.090Z,15.10
2018-04-17T07:43:17.598Z,16.00
2018-04-17T07:45:44.905Z,10.90
2018-04-17T07:48:21.456Z,13.03
2018-04-17T07:50:47.996Z,11.00
2018-04-17T07:53:14.511Z,10.60
2018-04-17T07:55:41.837Z,9.90
2018-04-17T07:58:08.416Z,11.73
2018-04-17T08:00:35.640Z,11.23
2018-04-17T08:03:02.164Z,11.80
2018-04-17T08:05:28.690Z,13.57
2018-04-17T08:07:55.177Z,16.13
2018-04-17T08:10:21.715Z,9.67
2018-04-17T08:12:48.228Z,9.60
2018-04-17T08:15:14.761Z,8.20
2018-04-17T08:17:41.295Z,12.90
2018-04-17T08:20:07.807Z,12.47
2018-04-17T08:22:34.306Z,10.93
2018-04-17T08:25:00.845Z,9.40
2018-04-17T08:27:27.325Z,10.03
2018-04-17T08:29:53.816Z,7.47
2018-04-17T08:32:20.338Z,8.87
2018-04-17T08:34:46.819Z,10.10
2018-04-17T08:37:14.171Z,9.23
2018-04-17T08:39:40.754Z,8.73
2018-04-17T08:42:07.236Z,7.40
2018-04-17T08:44:33.753Z,14.77
2018-04-17T08:47:00.250Z,11.33
2018-04-17T08:49:26.732Z,13.73
2018-04-17T08:51:53.203Z,10.27
2018-04-17T08:54:20.457Z,9.60
2018-04-17T08:56:46.933Z,8.93
2018-04-17T08:59:13.412Z,11.30
2018-04-17T09:01:39.933Z,7.43
2018-04-17T09:04:06.429Z,12.50
2018-04-17T09:06:33.729Z,8.93
2018-04-17T09:09:00.262Z,10.40
2018-04-17T09:11:26.857Z,9.93
2018-04-17T09:13:54.096Z,8.33
2018-04-17T09:16:20.633Z,9.30
2018-04-17T09:18:47.134Z,6.17
2018-04-17T09:21:13.643Z,3.37
2018-04-17T09:23:40.197Z,4.53
2018-04-17T09:26:06.713Z,5.37
2018-04-17T09:28:33.945Z,7.20
2018-04-17T09:31:00.489Z,4.43
2018-04-17T09:33:26.991Z,6.10
2018-04-17T09:35:53.517Z,6.17
2018-04-17T09:38:20.032Z,6.57
2018-04-17T09:40:47.270Z,13.70
2018-04-17T09:43:13.797Z,5.13
2018-04-17T09:45:40.321Z,4.37
2018-04-17T09:48:06.806Z,7.77
2018-04-17T09:50:33.337Z,6.87
2018-04-17T09:53:00.587Z,3.00
2018-04-17T09:55:27.821Z,2.73
2018-04-17T09:57:54.320Z,3.67
2018-04-17T10:00:20.870Z,3.80
2018-04-17T10:02:47.361Z,2.20
2018-04-17T10:05:14.628Z,2.27
2018-04-17T10:07:41.897Z,3.37
2018-04-17T10:10:08.379Z,5.13
2018-04-17T10:12:34.872Z,2.10
2018-04-17T10:15:01.360Z,3.47
2018-04-17T10:17:27.911Z,4.20
2018-04-17T10:19:54.448Z,3.47
2018-04-17T10:22:20.975Z,2.80
2018-04-17T10:24:47.464Z,5.20
2018-04-17T10:27:13.997Z,2.57
2018-04-17T10:29:40.529Z,1.90
2018-04-17T10:32:07.812Z,3.73
2018-04-17T10:34:34.298Z,1.73
2018-04-17T10:37:00.875Z,4.00
2018-04-17T10:39:27.406Z,3.83
2018-04-17T10:41:54.634Z,4.43
2018-04-17T10:44:21.158Z,5.43
2018-04-17T10:46:47.645Z,3.40
2018-04-17T10:49:14.887Z,3.10
2018-04-17T10:51:42.148Z,3.93
2018-04-17T10:54:09.387Z,2.50
2018-04-17T10:56:35.878Z,2.77
2018-04-17T10:59:02.433Z,3.50
2018-04-17T11:01:28.944Z,3.53
2018-04-17T11:03:55.450Z,1.40
2018-04-17T11:06:22.093Z,2.93
2018-04-17T11:08:48.624Z,2.40
2018-04-17T11:11:15.156Z,1.80
2018-04-17T11:13:41.764Z,4.33
2018-04-17T11:16:08.245Z,4.27
2018-04-17T11:18:34.805Z,5.73
2018-04-17T11:21:02.095Z,2.80
2018-04-17T11:23:28.596Z,1.73
2018-04-17T11:25:55.841Z,3.30
2018-04-17T11:28:23.106Z,3.20
2018-04-17T11:30:50.387Z,2.23
2018-04-17T11:33:16.893Z,3.83
2018-04-17T11:35:43.393Z,4.80
2018-04-17T11:38:09.960Z,1.90
2018-04-17T11:40:36.454Z,2.23
2018-04-17T11:43:03.041Z,1.10
2018-04-17T11:45:29.542Z,1.37
2018-04-17T11:47:56.059Z,1.20
2018-04-17T11:50:22.589Z,2.07
2018-04-17T11:52:49.077Z,1.60
2018-04-17T11:55:15.609Z,3.73
2018-04-17T11:57:42.115Z,1.30
2018-04-17T12:00:08.627Z,4.83
2018-04-17T12:02:35.886Z,1.73
2018-04-17T12:05:02.429Z,1.40
2018-04-17T12:07:29.690Z,2.37
2018-04-17T12:09:56.920Z,1.70
2018-04-17T12:12:23.440Z,0.90
2018-04-17T12:14:49.940Z,3.50
2018-04-17T12:17:16.445Z,2.43
2018-04-17T12:19:42.968Z,3.93
2018-04-17T12:22:09.465Z,3.77
2018-04-17T12:24:35.967Z,6.90
2018-04-17T12:27:03.286Z,4.07
2018-04-17T12:29:29.758Z,1.30
2018-04-17T12:31:56.987Z,1.83
2018-04-17T12:34:23.570Z,1.83
2018-04-17T12:36:50.841Z,2.90
2018-04-17T12:39:17.333Z,4.67
2018-04-17T12:41:43.895Z,4.50
2018-04-17T12:44:11.176Z,2.50
2018-04-17T12:46:37.691Z,2.07
2018-04-17T12:49:04.986Z,3.63
2018-04-17T12:51:31.462Z,2.50
2018-04-17T12:53:57.955Z,1.30
2018-04-17T12:56:24.472Z,2.47
2018-04-17T12:58:51.727Z,1.73
2018-04-17T13:01:18.968Z,3.37
2018-04-17T13:03:45.488Z,2.43
2018-04-17T13:06:11.990Z,1.93
2018-04-17T13:08:38.510Z,3.10
2018-04-17T13:11:05.755Z,1.03
2018-04-17T13:13:33.022Z,1.13
2018-04-17T13:16:00.298Z,1.40
2018-04-17T13:18:26.834Z,2.83
2018-04-17T13:20:53.355Z,2.60
2018-04-17T13:23:20.630Z,2.50
2018-04-17T13:25:47.178Z,5.90
2018-04-17T13:28:13.698Z,1.37
2018-04-17T13:30:40.189Z,1.83
2018-04-17T13:33:06.699Z,3.63
2018-04-17T13:35:33.190Z,4.47
2018-04-17T13:37:59.700Z,2.33
2018-04-17T13:40:26.197Z,2.93
2018-04-17T13:42:52.712Z,1.67
2018-04-17T13:45:19.976Z,1.50
2018-04-17T13:47:47.232Z,4.53
2018-04-17T13:50:14.468Z,1.93
2018-04-17T13:52:41.710Z,3.53
2018-04-17T13:55:08.222Z,4.27
2018-04-17T13:57:34.707Z,2.47
2018-04-17T14:00:01.224Z,2.70
2018-04-17T14:02:27.731Z,1.30
2018-04-17T14:04:54.231Z,2.27
2018-04-17T14:07:21.483Z,3.30
2018-04-17T14:09:48.736Z,5.80
2018-04-17T14:12:15.984Z,2.40
2018-04-17T14:14:42.496Z,3.13
2018-04-17T14:17:09.105Z,3.37
2018-04-17T14:19:35.563Z,1.70
2018-04-17T14:22:02.088Z,1.43
2018-04-17T14:24:28.638Z,2.30
2018-04-17T14:26:55.130Z,1.80
2018-04-17T14:29:22.380Z,2.83
2018-04-17T14:31:48.893Z,1.70
2018-04-17T14:34:15.390Z,4.23
2018-04-17T14:36:41.920Z,1.60
2018-04-17T14:39:09.176Z,1.77
2018-04-17T14:41:36.411Z,1.30
2018-04-17T14:44:02.925Z,1.53
2018-04-17T14:46:29.480Z,1.70
2018-04-17T14:48:56.012Z,1.67
2018-04-17T14:51:22.500Z,3.07
2018-04-17T14:53:49.023Z,1.30
2018-04-17T14:56:16.261Z,3.67
2018-04-17T14:58:42.818Z,1.93
2018-04-17T15:01:09.335Z,2.30
2018-04-17T15:03:35.840Z,2.33
2018-04-17T15:06:02.366Z,2.50
2018-04-17T15:08:29.729Z,2.70
2018-04-17T15:10:56.233Z,2.57
2018-04-17T15:13:23.460Z,2.00
2018-04-17T15:15:49.968Z,2.60
2018-04-17T15:18:16.489Z,2.10
2018-04-17T15:20:42.973Z,2.07
2018-04-17T15:23:09.547Z,3.57
2018-04-17T15:25:36.810Z,4.40
2018-04-17T15:28:03.300Z,2.20
2018-04-17T15:30:29.801Z,3.90
2018-04-17T15:32:56.290Z,5.47
2018-04-17T15:35:22.800Z,2.07
2018-04-17T15:37:49.314Z,2.17
2018-04-17T15:40:15.804Z,3.83
2018-04-17T15:42:42.289Z,3.53
2018-04-17T15:45:08.811Z,2.40
2018-04-17T15:47:37.027Z,3.30
2018-04-17T15:50:04.304Z,5.13
2018-04-17T15:52:30.826Z,1.90
2018-04-17T15:54:57.359Z,3.93
2018-04-17T15:57:23.893Z,3.03
2018-04-17T15:59:51.300Z,3.10
2018-04-17T16:02:17.944Z,3.90
2018-04-17T16:04:44.597Z,4.27
2018-04-17T16:07:11.945Z,9.20
2018-04-17T16:09:38.449Z,4.13
2018-04-17T16:12:04.945Z,2.73
2018-04-17T16:14:32.266Z,3.23
2018-04-17T16:16:58.791Z,3.57
2018-04-17T16:19:25.332Z,5.37
2018-04-17T16:21:51.903Z,6.07
2018-04-17T16:24:18.381Z,2.40
2018-04-17T16:26:44.968Z,6.40
2018-04-17T16:29:11.497Z,4.93
2018-04-17T16:31:37.981Z,3.17
2018-04-17T16:34:05.228Z,3.10
2018-04-17T16:36:32.495Z,2.87
2018-04-17T16:38:59.784Z,2.50
2018-04-17T16:41:26.330Z,3.43
2018-04-17T16:43:52.965Z,3.07
2018-04-17T16:46:19.453Z,3.50
2018-04-17T16:48:45.961Z,3.13
2018-04-17T16:51:12.522Z,3.30
2018-04-17T16:53:39.182Z,3.03
2018-04-17T16:56:06.448Z,5.17
2018-04-17T16:58:33.703Z,10.77
2018-04-17T17:01:00.938Z,3.70
2018-04-17T17:03:27.449Z,3.27
2018-04-17T17:05:54.006Z,5.10
2018-04-17T17:08:20.510Z,6.63
2018-04-17T17:10:47.033Z,7.00
2018-04-17T17:13:13.548Z,3.90
2018-04-17T17:15:40.802Z,2.97
2018-04-17T17:18:08.017Z,3.33
2018-04-17T17:20:34.561Z,3.30
2018-04-17T17:23:01.046Z,4.17
2018-04-17T17:25:28.290Z,4.83
2018-04-17T17:27:55.554Z,4.20
2018-04-17T17:30:22.840Z,3.60
2018-04-17T17:32:49.383Z,3.20
2018-04-17T17:35:16.000Z,6.97
2018-04-17T17:37:43.238Z,4.17
2018-04-17T17:40:10.523Z,4.30
2018-04-17T17:42:37.108Z,3.93
2018-04-17T17:45:03.656Z,4.03
2018-04-17T17:47:30.177Z,4.03
2018-04-17T17:49:56.795Z,3.40
2018-04-17T17:52:23.390Z,5.33
2018-04-17T17:54:49.956Z,4.33
2018-04-17T17:57:16.525Z,4.10
2018-04-17T17:59:43.054Z,5.10
2018-04-17T18:02:09.645Z,5.93
2018-04-17T18:04:36.314Z,4.60
2018-04-17T18:07:03.747Z,4.40
2018-04-17T18:09:30.465Z,4.57
2018-04-17T18:11:57.046Z,6.03
2018-04-17T18:14:24.305Z,4.13
2018-04-17T18:16:51.613Z,5.83
2018-04-17T18:19:18.152Z,4.03
2018-04-17T18:21:44.738Z,4.93
2018-04-17T18:24:11.302Z,5.10
2018-04-17T18:26:37.915Z,5.53
2018-04-17T18:29:04.570Z,4.80
2018-04-17T18:31:31.864Z,5.20
2018-04-17T18:33:58.394Z,5.37
2018-04-17T18:36:24.940Z,4.50
2018-04-17T18:38:52.509Z,8.43
2018-04-17T18:41:19.094Z,4.50
2018-04-17T18:46:18.870Z,5.83
2018-04-17T18:48:45.433Z,6.33
2018-04-17T18:51:11.961Z,9.03
2018-04-17T18:53:38.529Z,6.20
2018-04-17T18:56:05.063Z,8.13
2018-04-17T18:58:31.580Z,5.10
2018-04-17T19:00:58.104Z,6.20
2018-04-17T19:03:24.684Z,8.20
2018-04-17T19:05:51.298Z,8.27
2018-04-17T19:08:17.841Z,6.53
2018-04-17T19:10:44.487Z,10.60
2018-04-17T19:13:11.065Z,7.40
2018-04-17T19:15:37.627Z,8.23
2018-04-17T19:18:04.936Z,9.93
2018-04-17T19:20:31.499Z,7.27
2018-04-17T19:22:58.024Z,9.70
2018-04-17T19:25:24.603Z,10.73
2018-04-17T19:27:51.853Z,13.17
2018-04-17T19:30:19.177Z,8.67
2018-04-17T19:32:45.740Z,10.27
2018-04-17T19:35:12.275Z,10.67
2018-04-17T19:37:38.906Z,9.50
2018-04-17T19:40:05.455Z,11.83
2018-04-17T19:42:31.971Z,7.87
2018-04-17T19:44:58.524Z,9.50
2018-04-17T19:47:25.099Z,10.83
2018-04-17T19:49:51.657Z,12.20
2018-04-17T19:52:18.172Z,13.80
2018-04-17T19:54:45.568Z,9.47
2018-04-17T19:57:12.139Z,9.00
2018-04-17T19:59:38.601Z,11.03
2018-04-17T20:02:05.187Z,9.60
2018-04-17T20:04:31.718Z,10.60
2018-04-17T20:06:58.299Z,8.73
2018-04-17T20:09:24.886Z,11.03
2018-04-17T20:11:51.371Z,14.93
2018-04-17T20:14:17.935Z,10.47
2018-04-17T20:16:44.575Z,10.30
2018-04-17T20:19:11.068Z,13.00
2018-04-17T20:21:38.607Z,9.90
2018-04-17T20:24:05.892Z,10.40
2018-04-17T20:26:32.478Z,9.50
2018-04-17T20:28:59.047Z,10.00
2018-04-17T20:31:26.352Z,9.27
2018-04-17T20:33:52.880Z,9.00
2018-04-17T20:36:19.415Z,12.23
2018-04-17T20:38:45.948Z,9.87
2018-04-17T20:41:12.448Z,10.00
2018-04-17T20:43:39.760Z,11.40
2018-04-17T20:46:06.336Z,9.97
2018-04-17T20:48:32.925Z,8.90
2018-04-17T20:50:59.467Z,10.57
2018-04-17T20:53:26.048Z,8.77
2018-04-17T20:55:52.619Z,10.00
2018-04-17T20:58:20.373Z,9.33
2018-04-17T21:00:47.663Z,8.73
2018-04-17T21:03:14.197Z,9.17
2018-04-17T21:05:40.751Z,8.77
2018-04-17T21:08:08.057Z,9.37
2018-04-17T21:10:34.648Z,10.50
2018-04-17T21:13:01.213Z,10.43
2018-04-17T21:15:27.769Z,9.63
2018-04-17T21:17:54.312Z,11.03
2018-04-17T21:20:20.828Z,13.37
2018-04-17T21:22:47.397Z,10.43
2018-04-17T21:25:13.934Z,12.40
2018-04-17T21:27:40.447Z,9.37
2018-04-17T21:30:07.038Z,9.00
2018-04-17T21:32:34.277Z,9.07
2018-04-17T21:35:00.832Z,8.73
2018-04-17T21:37:28.096Z,9.00
2018-04-17T21:39:54.675Z,11.40
2018-04-17T21:42:21.201Z,13.50
2018-04-17T21:44:47.759Z,9.60
2018-04-17T21:47:14.284Z,10.37
2018-04-17T21:49:40.764Z,10.87
2018-04-17T21:52:07.275Z,11.60
2018-04-17T21:54:33.781Z,10.60
2018-04-17T21:57:00.272Z,12.03
2018-04-17T21:59:26.820Z,11.03
2018-04-17T22:01:53.309Z,10.13
2018-04-17T22:04:19.885Z,9.43
2018-04-17T22:06:46.383Z,9.27
2018-04-17T22:09:12.873Z,9.87
2018-04-17T22:11:39.416Z,9.97
2018-04-17T22:14:05.928Z,11.20
2018-04-17T22:16:32.436Z,10.00
2018-04-17T22:18:58.937Z,9.73
2018-04-17T22:21:26.287Z,9.83
2018-04-17T22:23:52.866Z,10.07
2018-04-17T22:26:19.360Z,10.83
2018-04-17T22:28:45.867Z,10.50
2018-04-17T22:31:12.407Z,10.30
2018-04-17T22:33:38.904Z,10.37
2018-04-17T22:36:06.149Z,10.30
2018-04-17T22:38:32.686Z,9.93
2018-04-17T22:40:59.238Z,10.53
2018-04-17T22:43:26.594Z,10.57
2018-04-17T22:45:53.942Z,11.17
2018-04-17T22:48:20.480Z,10.27
2018-04-17T22:50:47.061Z,9.70
2018-04-17T22:53:13.630Z,9.60
2018-04-17T22:55:40.204Z,10.63
2018-04-17T22:58:06.822Z,10.77
2018-04-17T23:00:33.358Z,11.70
2018-04-17T23:02:59.864Z,10.80
2018-04-17T23:05:26.377Z,13.50
2018-04-17T23:07:53.601Z,10.60
2018-04-17T23:10:20.149Z,10.00
2018-04-17T23:12:46.676Z,11.00
2018-04-17T23:15:13.204Z,12.07
2018-04-17T23:17:39.748Z,11.33
2018-04-17T23:20:06.260Z,11.40
2018-04-17T23:22:34.774Z,11.20
2018-04-17T23:25:01.273Z,12.10
2018-04-17T23:27:27.779Z,12.33
2018-04-17T23:29:54.284Z,15.93
2018-04-17T23:32:20.788Z,10.83
2018-04-17T23:34:47.284Z,13.00
2018-04-17T23:37:13.816Z,12.27
2018-04-17T23:39:40.320Z,11.40
2018-04-17T23:42:06.850Z,11.83
2018-04-17T23:44:33.379Z,11.87
2018-04-17T23:46:59.925Z,12.10
2018-04-17T23:49:26.434Z,12.33
2018-04-17T23:51:53.712Z,11.40
2018-04-17T23:54:20.225Z,11.03
2018-04-17T23:56:46.768Z,13.37
2018-04-17T23:59:13.236Z,12.03
